createdAt,value
2023-01-13T00:01:26.571Z,100123.94
2023-01-13T00:03:53.588Z,100131.88
2023-01-13T00:06:25.872Z,100128.88
2023-01-13T00:08:53.569Z,100121.09
2023-01-13T00:11:21.183Z,100116.06
2023-01-13T00:13:47.994Z,100124.88
2023-01-13T00:16:17.450Z,100122.38
2023-01-13T00:18:45.683Z,100127.13
2023-01-13T00:21:14.430Z,100130.00
2023-01-13T00:23:42.245Z,100121.34
2023-01-13T00:26:23.753Z,100122.28
2023-01-13T00:28:51.498Z,100130.38
2023-01-13T00:31:21.077Z,100129.88
2023-01-13T00:33:51.738Z,100127.78
2023-01-13T00:36:20.911Z,100128.22
2023-01-13T00:38:48.246Z,100128.91
2023-01-13T00:41:19.982Z,100128.91
2023-01-13T00:43:47.265Z,100133.09
2023-01-13T00:46:17.743Z,100132.53
2023-01-13T00:48:44.901Z,100143.91
2023-01-13T00:51:15.074Z,100136.38
2023-01-13T00:53:44.595Z,100136.78
2023-01-13T00:56:30.549Z,100141.22
2023-01-13T00:59:05.793Z,100145.09
2023-01-13T01:01:33.078Z,100143.22
2023-01-13T01:04:00.155Z,100147.00
2023-01-13T01:06:28.158Z,100142.13
2023-01-13T01:08:56.338Z,100145.75
2023-01-13T01:11:26.230Z,100148.03
2023-01-13T01:13:55.040Z,100146.63
2023-01-13T01:16:24.666Z,100141.06
2023-01-13T01:18:53.088Z,100136.78
2023-01-13T01:21:21.246Z,100134.53
2023-01-13T01:23:48.175Z,100130.28
2023-01-13T01:26:20.820Z,100127.56
2023-01-13T01:28:48.229Z,100120.41
2023-01-13T01:31:17.751Z,100123.06
2023-01-13T01:33:44.763Z,100123.81
2023-01-13T01:36:12.471Z,100128.97
2023-01-13T01:38:39.345Z,100122.41
2023-01-13T01:41:07.170Z,100129.34
2023-01-13T01:44:08.284Z,100128.88
2023-01-13T01:46:40.899Z,100121.78
2023-01-13T01:49:23.136Z,100122.69
2023-01-13T01:52:04.456Z,100118.72
2023-01-13T01:55:02.552Z,100120.88
2023-01-13T01:57:53.885Z,100122.31
2023-01-13T02:00:21.790Z,100116.38
2023-01-13T02:02:50.543Z,100120.03
2023-01-13T02:05:18.146Z,100119.63
2023-01-13T02:07:49.702Z,100125.03
2023-01-13T02:10:23.667Z,100128.50
2023-01-13T02:12:52.002Z,100120.31
2023-01-13T02:15:23.332Z,100124.47
2023-01-13T02:18:22.224Z,100113.28
2023-01-13T02:21:26.299Z,100110.59
2023-01-13T02:24:32.585Z,100113.44
2023-01-13T02:27:21.122Z,100114.44
2023-01-13T02:30:06.473Z,100112.59
2023-01-13T02:32:43.883Z,100116.06
2023-01-13T02:35:22.312Z,100115.44
2023-01-13T02:37:50.233Z,100113.81
2023-01-13T02:40:27.491Z,100117.38
2023-01-13T02:43:51.049Z,100111.56
2023-01-13T02:46:20.448Z,100117.66
2023-01-13T02:48:50.681Z,100124.47
2023-01-13T02:51:21.574Z,100119.28
2023-01-13T02:53:58.594Z,100126.78
2023-01-13T02:56:27.839Z,100122.50
2023-01-13T02:58:57.394Z,100119.22
2023-01-13T03:01:24.579Z,100123.03
2023-01-13T03:03:51.506Z,100121.59
2023-01-13T03:06:35.980Z,100120.16
2023-01-13T03:09:40.027Z,100124.72
2023-01-13T03:12:26.045Z,100128.97
2023-01-13T03:14:55.907Z,100128.13
2023-01-13T03:17:30.148Z,100129.81
2023-01-13T03:20:21.248Z,100129.03
2023-01-13T03:22:56.872Z,100138.91
2023-01-13T03:25:23.694Z,100132.50
2023-01-13T03:27:58.863Z,100126.63
2023-01-13T03:30:32.621Z,100132.50
2023-01-13T03:33:11.646Z,100132.72
2023-01-13T03:35:42.284Z,100134.28
2023-01-13T03:38:15.874Z,100135.75
2023-01-13T03:40:50.431Z,100139.84
2023-01-13T03:43:53.856Z,100142.16
2023-01-13T03:46:29.796Z,100137.69
2023-01-13T03:49:00.181Z,100140.31
2023-01-13T03:51:31.571Z,100148.63
2023-01-13T03:54:03.045Z,100143.53
2023-01-13T03:56:45.475Z,100139.25
2023-01-13T03:59:19.964Z,100138.16
2023-01-13T04:01:53.130Z,100137.28
2023-01-13T04:04:27.510Z,100141.31
2023-01-13T04:07:03.645Z,100142.00
2023-01-13T04:09:36.857Z,100141.78
2023-01-13T04:12:21.586Z,100144.72
2023-01-13T04:14:49.541Z,100153.56
2023-01-13T04:17:16.782Z,100148.25
2023-01-13T04:19:43.777Z,100153.56
2023-01-13T04:22:10.697Z,100153.25
2023-01-13T04:24:37.645Z,100148.00
2023-01-13T04:27:04.733Z,100156.19
2023-01-13T04:29:32.158Z,100149.97
2023-01-13T04:31:59.116Z,100160.47
2023-01-13T04:34:28.200Z,100158.22
2023-01-13T04:36:55.341Z,100158.50
2023-01-13T04:39:22.206Z,100158.13
2023-01-13T04:41:58.276Z,100155.94
2023-01-13T04:44:26.394Z,100157.31
2023-01-13T04:46:53.760Z,100169.69
2023-01-13T04:49:20.689Z,100162.47
2023-01-13T04:51:47.570Z,100166.16
2023-01-13T04:54:14.593Z,100167.81
2023-01-13T04:56:41.396Z,100177.59
2023-01-13T04:59:10.831Z,100177.72
2023-01-13T05:01:38.136Z,100181.81
2023-01-13T05:04:05.784Z,100186.25
2023-01-13T05:06:32.950Z,100186.19
2023-01-13T05:08:59.891Z,100188.03
2023-01-13T05:11:45.470Z,100191.94
2023-01-13T05:14:31.039Z,100187.75
2023-01-13T05:17:00.966Z,100198.47
2023-01-13T05:19:33.178Z,100199.09
2023-01-13T05:22:19.477Z,100212.03
2023-01-13T05:25:05.086Z,100216.19
2023-01-13T05:27:33.035Z,100203.53
2023-01-13T05:30:00.226Z,100200.78
2023-01-13T05:32:30.349Z,100212.94
2023-01-13T05:34:57.489Z,100206.88
2023-01-13T05:37:25.967Z,100213.59
2023-01-13T05:40:11.350Z,100203.81
2023-01-13T05:42:56.955Z,100203.59
2023-01-13T05:45:24.293Z,100204.03
2023-01-13T05:47:51.353Z,100200.84
2023-01-13T05:50:18.709Z,100207.06
2023-01-13T05:52:45.771Z,100202.47
2023-01-13T05:55:12.769Z,100208.81
2023-01-13T05:57:39.570Z,100206.38
2023-01-13T06:00:07.279Z,100208.16
2023-01-13T06:02:39.891Z,100207.50
2023-01-13T06:05:07.044Z,100211.44
2023-01-13T06:07:34.067Z,100211.13
2023-01-13T06:10:00.940Z,100217.13
2023-01-13T06:12:27.889Z,100208.16
2023-01-13T06:14:54.749Z,100208.63
2023-01-13T06:17:21.620Z,100213.41
2023-01-13T06:19:48.520Z,100222.88
2023-01-13T06:22:23.762Z,100219.50
2023-01-13T06:24:53.601Z,100218.41
2023-01-13T06:27:21.697Z,100220.63
2023-01-13T06:29:48.555Z,100222.31
2023-01-13T06:32:19.632Z,100222.78
2023-01-13T06:34:53.024Z,100220.69
2023-01-13T06:37:25.386Z,100224.03
2023-01-13T06:39:58.147Z,100227.34
2023-01-13T06:42:47.057Z,100220.19
2023-01-13T06:45:14.245Z,100219.44
2023-01-13T06:47:41.676Z,100220.25
2023-01-13T06:50:09.235Z,100232.00
2023-01-13T06:52:36.053Z,100231.25
2023-01-13T06:55:03.449Z,100223.91
2023-01-13T06:57:30.459Z,100224.78
2023-01-13T06:59:57.253Z,100231.78
2023-01-13T07:02:24.191Z,100234.09
2023-01-13T07:04:51.147Z,100241.75
2023-01-13T07:07:17.962Z,100242.19
2023-01-13T07:09:44.779Z,100250.38
2023-01-13T07:12:12.424Z,100246.69
2023-01-13T07:14:58.150Z,100249.97
2023-01-13T07:17:28.001Z,100247.34
2023-01-13T07:19:58.146Z,100255.97
2023-01-13T07:22:25.225Z,100254.69
2023-01-13T07:24:52.105Z,100248.63
2023-01-13T07:27:19.002Z,100257.97
2023-01-13T07:29:45.833Z,100255.28
2023-01-13T07:32:12.664Z,100261.66
2023-01-13T07:34:39.642Z,100258.69
2023-01-13T07:37:06.514Z,100266.97
2023-01-13T07:39:33.374Z,100265.72
2023-01-13T07:42:18.962Z,100269.66
2023-01-13T07:44:45.828Z,100260.72
2023-01-13T07:47:12.689Z,100274.75
2023-01-13T07:49:39.723Z,100266.19
2023-01-13T07:52:06.956Z,100268.03
2023-01-13T07:54:40.758Z,100277.00
2023-01-13T07:57:09.340Z,100282.16
2023-01-13T07:59:36.332Z,100275.28
2023-01-13T08:02:03.561Z,100278.63
2023-01-13T08:04:30.519Z,100274.91
2023-01-13T08:06:57.385Z,100280.53
2023-01-13T08:09:24.278Z,100280.00
2023-01-13T08:12:14.559Z,100291.06
2023-01-13T08:14:41.739Z,100287.75
2023-01-13T08:17:09.453Z,100293.25
2023-01-13T08:19:36.422Z,100291.56
2023-01-13T08:22:03.385Z,100298.13
2023-01-13T08:24:30.261Z,100292.66
2023-01-13T08:26:57.133Z,100286.59
2023-01-13T08:29:23.964Z,100285.53
2023-01-13T08:31:50.815Z,100270.25
2023-01-13T08:34:17.763Z,100282.16
2023-01-13T08:36:44.656Z,100286.44
2023-01-13T08:39:11.448Z,100284.81
2023-01-13T08:41:56.563Z,100286.56
2023-01-13T08:44:25.355Z,100291.94
2023-01-13T08:46:52.274Z,100284.69
2023-01-13T08:49:19.749Z,100284.59
2023-01-13T08:51:46.726Z,100283.88
2023-01-13T08:54:14.117Z,100278.63
2023-01-13T08:56:42.852Z,100282.97
2023-01-13T08:59:13.369Z,100280.66
2023-01-13T09:01:41.163Z,100278.97
2023-01-13T09:04:18.257Z,100275.25
2023-01-13T09:06:46.423Z,100281.44
2023-01-13T09:09:13.661Z,100270.47
2023-01-13T09:12:05.891Z,100273.69
2023-01-13T09:14:34.967Z,100276.72
2023-01-13T09:17:01.886Z,100274.16
2023-01-13T09:19:29.656Z,100262.81
2023-01-13T09:21:57.718Z,100263.50
2023-01-13T09:24:25.445Z,100268.75
2023-01-13T09:26:52.466Z,100275.94
2023-01-13T09:29:20.125Z,100274.31
2023-01-13T09:31:47.351Z,100270.75
2023-01-13T09:34:36.718Z,100270.44
2023-01-13T09:37:05.401Z,100261.50
2023-01-13T09:39:33.273Z,100266.56
2023-01-13T09:42:30.164Z,100265.97
2023-01-13T09:45:20.947Z,100268.06
2023-01-13T09:48:13.846Z,100259.47
2023-01-13T09:50:43.763Z,100254.91
2023-01-13T09:53:19.021Z,100251.34
2023-01-13T09:55:46.452Z,100251.69
2023-01-13T09:58:18.597Z,100240.91
2023-01-13T10:00:53.914Z,100244.53
2023-01-13T10:03:25.737Z,100243.06
2023-01-13T10:06:11.385Z,100234.25
2023-01-13T10:08:41.280Z,100234.25
2023-01-13T10:11:41.375Z,100230.16
2023-01-13T10:14:11.024Z,100226.84
2023-01-13T10:16:44.685Z,100222.34
2023-01-13T10:19:17.885Z,100230.34
2023-01-13T10:22:04.544Z,100222.66
2023-01-13T10:24:49.372Z,100213.50
2023-01-13T10:27:30.558Z,100215.22
2023-01-13T10:29:57.598Z,100220.00
2023-01-13T10:32:24.573Z,100225.25
2023-01-13T10:34:52.380Z,100213.06
2023-01-13T10:37:25.981Z,100210.41
2023-01-13T10:40:00.647Z,100211.50
2023-01-13T10:42:27.598Z,100203.19
2023-01-13T10:44:59.488Z,100202.78
2023-01-13T10:47:32.145Z,100199.56
2023-01-13T10:50:17.199Z,100201.53
2023-01-13T10:53:03.167Z,100208.00
2023-01-13T10:55:38.720Z,100200.09
2023-01-13T10:58:19.430Z,100201.53
2023-01-13T11:00:47.367Z,100207.56
2023-01-13T11:03:20.715Z,100201.19
2023-01-13T11:05:55.587Z,100201.03
2023-01-13T11:08:26.548Z,100202.66
2023-01-13T11:10:59.290Z,100203.34
2023-01-13T11:14:03.746Z,100205.28
2023-01-13T11:16:30.856Z,100198.72
2023-01-13T11:19:11.908Z,100196.44
2023-01-13T11:22:07.278Z,100190.84
2023-01-13T11:24:45.096Z,100195.56
2023-01-13T11:27:22.792Z,100192.88
2023-01-13T11:30:03.014Z,100189.19
2023-01-13T11:32:36.416Z,100190.59
2023-01-13T11:35:16.467Z,100188.69
2023-01-13T11:37:50.803Z,100188.91
2023-01-13T11:40:34.700Z,100187.44
2023-01-13T11:43:20.585Z,100186.25
2023-01-13T11:45:59.143Z,100182.78
2023-01-13T11:48:30.154Z,100175.66
2023-01-13T11:51:15.196Z,100176.88
2023-01-13T11:54:29.169Z,100169.78
2023-01-13T11:57:22.883Z,100175.22
2023-01-13T12:00:31.715Z,100168.53
2023-01-13T12:03:17.582Z,100166.16
2023-01-13T12:05:53.101Z,100171.91
2023-01-13T12:08:38.319Z,100165.78
2023-01-13T12:11:32.818Z,100165.22
2023-01-13T12:14:19.586Z,100167.06
2023-01-13T12:16:49.651Z,100167.84
2023-01-13T12:19:29.270Z,100172.59
2023-01-13T12:22:05.122Z,100173.59
2023-01-13T12:24:38.144Z,100167.06
2023-01-13T12:27:19.323Z,100168.53
2023-01-13T12:29:49.164Z,100166.75
2023-01-13T12:32:24.567Z,100160.78
2023-01-13T12:35:06.706Z,100172.09
2023-01-13T12:37:50.133Z,100171.25
2023-01-13T12:40:43.880Z,100161.38
2023-01-13T12:43:38.853Z,100168.47
2023-01-13T12:46:23.688Z,100174.31
2023-01-13T12:48:59.417Z,100170.31
2023-01-13T12:51:36.669Z,100170.06
2023-01-13T12:54:31.288Z,100164.63
2023-01-13T12:56:59.195Z,100167.66
2023-01-13T12:59:26.048Z,100172.44
2023-01-13T13:02:11.349Z,100170.47
2023-01-13T13:04:49.734Z,100170.91
2023-01-13T13:07:26.785Z,100180.16
2023-01-13T13:10:00.561Z,100179.41
2023-01-13T13:13:01.238Z,100178.31
2023-01-13T13:15:31.391Z,100181.34
2023-01-13T13:18:17.005Z,100184.25
2023-01-13T13:21:09.192Z,100182.03
2023-01-13T13:24:03.088Z,100180.31
2023-01-13T13:26:36.125Z,100181.41
2023-01-13T13:29:16.704Z,100187.47
2023-01-13T13:32:17.670Z,100185.78
2023-01-13T13:35:23.431Z,100191.28
2023-01-13T13:38:33.881Z,100195.63
2023-01-13T13:41:23.500Z,100194.78
2023-01-13T13:44:09.717Z,100190.09
2023-01-13T13:46:49.883Z,100197.06
2023-01-13T13:49:46.779Z,100196.97
2023-01-13T13:52:20.640Z,100198.84
2023-01-13T13:54:52.182Z,100199.75
2023-01-13T13:57:33.877Z,100200.19
2023-01-13T14:00:06.703Z,100201.13
2023-01-13T14:02:38.941Z,100208.88
2023-01-13T14:05:16.956Z,100198.75
2023-01-13T14:07:46.036Z,100205.13
2023-01-13T14:10:19.657Z,100214.53
2023-01-13T14:12:46.693Z,100219.81
2023-01-13T14:15:31.528Z,100209.44
2023-01-13T14:18:04.138Z,100213.84
2023-01-13T14:20:31.349Z,100223.78
2023-01-13T14:23:01.703Z,100221.75
2023-01-13T14:25:46.260Z,100223.63
2023-01-13T14:28:13.083Z,100219.97
2023-01-13T14:30:41.783Z,100209.38
2023-01-13T14:33:16.751Z,100223.28
2023-01-13T14:36:05.554Z,100222.28
2023-01-13T14:38:33.054Z,100231.44
2023-01-13T14:41:15.578Z,100225.06
2023-01-13T14:43:44.523Z,100220.13
2023-01-13T14:46:11.854Z,100228.53
2023-01-13T14:48:41.139Z,100229.13
2023-01-13T14:51:13.360Z,100225.81
2023-01-13T14:53:45.171Z,100229.13
2023-01-13T14:56:38.282Z,100235.56
2023-01-13T14:59:33.759Z,100231.69
2023-01-13T15:02:03.269Z,100230.13
2023-01-13T15:04:37.692Z,100232.94
2023-01-13T15:07:05.017Z,100238.72
2023-01-13T15:09:41.678Z,100231.13
2023-01-13T15:12:30.914Z,100237.06
2023-01-13T15:14:58.272Z,100243.00
2023-01-13T15:17:25.242Z,100246.75
2023-01-13T15:19:53.781Z,100239.16
2023-01-13T15:22:20.590Z,100245.75
2023-01-13T15:24:48.177Z,100250.16
2023-01-13T15:27:26.286Z,100246.91
2023-01-13T15:29:53.250Z,100249.16
2023-01-13T15:32:21.724Z,100256.50
2023-01-13T15:34:49.013Z,100261.00
2023-01-13T15:37:17.216Z,100258.03
2023-01-13T15:39:44.215Z,100258.78
2023-01-13T15:42:32.874Z,100262.03
2023-01-13T15:45:19.061Z,100262.91
2023-01-13T15:47:46.171Z,100278.72
2023-01-13T15:50:17.623Z,100279.66
2023-01-13T15:52:44.599Z,100281.91
2023-01-13T15:55:11.555Z,100271.78
2023-01-13T15:57:40.512Z,100272.81
2023-01-13T16:00:20.408Z,100272.81
2023-01-13T16:02:47.597Z,100266.16
2023-01-13T16:05:14.662Z,100268.53
2023-01-13T16:07:41.820Z,100258.19
2023-01-13T16:10:18.053Z,100256.56
2023-01-13T16:12:45.155Z,100252.03
2023-01-13T16:15:16.855Z,100256.81
2023-01-13T16:17:45.563Z,100254.00
2023-01-13T16:20:15.246Z,100251.22
2023-01-13T16:22:42.264Z,100248.69
2023-01-13T16:25:21.747Z,100258.56
2023-01-13T16:27:49.090Z,100260.25
2023-01-13T16:30:25.007Z,100259.81
2023-01-13T16:32:52.211Z,100266.66
2023-01-13T16:35:19.641Z,100267.69
2023-01-13T16:37:49.801Z,100270.56
2023-01-13T16:40:25.953Z,100262.69
2023-01-13T16:42:53.267Z,100260.06
2023-01-13T16:45:20.140Z,100256.63
2023-01-13T16:47:47.472Z,100255.53
2023-01-13T16:50:33.736Z,100259.22
2023-01-13T16:53:00.583Z,100259.91
2023-01-13T16:55:27.928Z,100264.81
2023-01-13T16:57:55.095Z,100261.75
2023-01-13T17:00:22.430Z,100254.09
2023-01-13T17:02:49.578Z,100264.16
2023-01-13T17:05:16.629Z,100268.56
2023-01-13T17:07:45.759Z,100256.63
2023-01-13T17:10:18.542Z,100259.25
2023-01-13T17:12:45.470Z,100271.41
2023-01-13T17:15:14.384Z,100269.25
2023-01-13T17:17:43.426Z,100271.63
2023-01-13T17:20:13.110Z,100273.97
2023-01-13T17:22:40.685Z,100284.41
2023-01-13T17:25:10.396Z,100268.88
2023-01-13T17:27:37.395Z,100269.38
2023-01-13T17:30:05.062Z,100270.56
2023-01-13T17:32:32.020Z,100276.78
2023-01-13T17:35:01.670Z,100263.44
2023-01-13T17:37:29.352Z,100268.94
2023-01-13T17:39:56.197Z,100274.44
2023-01-13T17:42:25.078Z,100273.34
2023-01-13T17:44:52.028Z,100282.88
2023-01-13T17:47:18.969Z,100279.31
2023-01-13T17:49:46.209Z,100286.19
2023-01-13T17:52:13.245Z,100281.84
2023-01-13T17:54:43.151Z,100269.53
2023-01-13T17:57:10.765Z,100276.31
2023-01-13T17:59:37.644Z,100278.34
2023-01-13T18:02:04.938Z,100281.44
2023-01-13T18:04:32.077Z,100278.47
2023-01-13T18:06:59.001Z,100273.06
2023-01-13T18:09:26.828Z,100269.59
2023-01-13T18:11:53.781Z,100276.56
2023-01-13T18:14:22.580Z,100278.94
2023-01-13T18:16:49.801Z,100281.97
2023-01-13T18:19:35.597Z,100280.66
2023-01-13T18:22:21.294Z,100283.44
2023-01-13T18:25:06.909Z,100285.00
2023-01-13T18:27:36.484Z,100283.13
2023-01-13T18:30:05.232Z,100270.31
2023-01-13T18:32:33.620Z,100277.31
2023-01-13T18:35:06.672Z,100279.19
2023-01-13T18:37:38.919Z,100281.44
2023-01-13T18:40:07.739Z,100278.56
2023-01-13T18:42:54.221Z,100276.66
2023-01-13T18:45:24.722Z,100284.13
2023-01-13T18:47:52.111Z,100276.19
2023-01-13T18:50:19.143Z,100279.94
2023-01-13T18:52:46.074Z,100276.94
2023-01-13T18:55:13.259Z,100279.91
2023-01-13T18:57:40.709Z,100274.47
2023-01-13T19:00:13.496Z,100258.69
2023-01-13T19:02:40.773Z,100267.25
2023-01-13T19:05:08.429Z,100269.59
2023-01-13T19:07:36.266Z,100275.00
2023-01-13T19:10:05.667Z,100265.34
2023-01-13T19:12:33.811Z,100269.41
2023-01-13T19:15:02.792Z,100271.19
2023-01-13T19:17:34.422Z,100270.59
2023-01-13T19:20:02.157Z,100268.66
2023-01-13T19:22:32.881Z,100261.16
2023-01-13T19:25:01.634Z,100264.81
2023-01-13T19:27:29.802Z,100273.31
2023-01-13T19:30:01.508Z,100264.59
2023-01-13T19:32:30.947Z,100267.63
2023-01-13T19:34:59.776Z,100272.03
2023-01-13T19:37:30.495Z,100275.22
2023-01-13T19:39:59.278Z,100272.75
2023-01-13T19:43:01.906Z,100268.44
2023-01-13T19:45:31.282Z,100275.53
2023-01-13T19:48:01.892Z,100278.69
2023-01-13T19:50:28.863Z,100285.91
2023-01-13T19:52:55.762Z,100286.28
2023-01-13T19:55:22.795Z,100281.81
2023-01-13T19:57:49.974Z,100285.38
2023-01-13T20:00:20.737Z,100283.75
2023-01-13T20:02:49.342Z,100284.81
2023-01-13T20:05:21.436Z,100288.25
2023-01-13T20:07:49.839Z,100295.50
2023-01-13T20:10:18.208Z,100293.09
2023-01-13T20:12:45.094Z,100294.09
2023-01-13T20:15:12.169Z,100295.25
2023-01-13T20:17:40.541Z,100289.16
2023-01-13T20:20:09.086Z,100292.00
2023-01-13T20:22:37.582Z,100297.28
2023-01-13T20:25:04.821Z,100293.66
2023-01-13T20:27:31.788Z,100295.00
2023-01-13T20:29:59.127Z,100295.44
2023-01-13T20:32:26.125Z,100294.59
2023-01-13T20:34:52.983Z,100290.78
2023-01-13T20:37:19.839Z,100288.69
2023-01-13T20:39:47.179Z,100292.41
2023-01-13T20:42:29.350Z,100290.09
2023-01-13T20:44:56.814Z,100288.38
2023-01-13T20:47:24.566Z,100286.47
2023-01-13T20:49:51.503Z,100288.06
2023-01-13T20:52:18.355Z,100293.19
2023-01-13T20:54:45.203Z,100289.63
2023-01-13T20:57:12.689Z,100294.81
2023-01-13T20:59:40.001Z,100299.19
2023-01-13T21:02:12.547Z,100295.44
2023-01-13T21:04:40.130Z,100291.09
2023-01-13T21:07:07.064Z,100289.56
2023-01-13T21:09:34.099Z,100286.06
2023-01-13T21:12:19.348Z,100299.38
2023-01-13T21:15:04.946Z,100291.16
2023-01-13T21:17:50.314Z,100286.16
2023-01-13T21:20:17.318Z,100287.00
2023-01-13T21:22:46.348Z,100284.69
2023-01-13T21:25:13.983Z,100282.16
2023-01-13T21:27:41.075Z,100286.22
2023-01-13T21:30:09.235Z,100282.34
2023-01-13T21:32:36.044Z,100277.56
2023-01-13T21:35:03.058Z,100271.31
2023-01-13T21:37:29.963Z,100274.53
2023-01-13T21:39:56.956Z,100275.63
2023-01-13T21:42:42.614Z,100278.16
2023-01-13T21:45:29.421Z,100274.78
2023-01-13T21:47:56.660Z,100278.97
2023-01-13T21:50:26.080Z,100275.38
2023-01-13T21:52:53.073Z,100273.56
2023-01-13T21:55:40.355Z,100269.28
2023-01-13T21:58:12.863Z,100277.78
2023-01-13T22:00:42.155Z,100281.28
2023-01-13T22:03:11.470Z,100267.50
2023-01-13T22:05:38.406Z,100276.19
2023-01-13T22:08:05.715Z,100266.81
2023-01-13T22:10:32.919Z,100272.06
2023-01-13T22:13:21.516Z,100267.38
2023-01-13T22:15:48.595Z,100258.88
2023-01-13T22:18:18.089Z,100264.66
2023-01-13T22:20:45.432Z,100262.03
2023-01-13T22:23:12.613Z,100256.56
2023-01-13T22:25:39.554Z,100245.13
2023-01-13T22:28:08.755Z,100263.81
2023-01-13T22:30:35.702Z,100263.28
2023-01-13T22:33:02.534Z,100257.31
2023-01-13T22:35:29.422Z,100250.03
2023-01-13T22:37:56.307Z,100250.97
2023-01-13T22:40:23.091Z,100246.34
2023-01-13T22:42:49.998Z,100249.91
2023-01-13T22:45:16.901Z,100257.09
2023-01-13T22:47:43.796Z,100247.56
2023-01-13T22:50:12.742Z,100245.34
2023-01-13T22:52:39.719Z,100245.19
2023-01-13T22:55:07.264Z,100239.47
2023-01-13T22:57:36.339Z,100239.78
2023-01-13T23:00:06.329Z,100240.84
2023-01-13T23:02:34.563Z,100240.63
2023-01-13T23:05:01.905Z,100238.22
2023-01-13T23:07:29.268Z,100229.59
2023-01-13T23:09:56.220Z,100241.69
2023-01-13T23:12:23.159Z,100245.47
2023-01-13T23:14:50.142Z,100242.00
2023-01-13T23:17:17.000Z,100241.63
2023-01-13T23:19:43.862Z,100233.75
2023-01-13T23:22:10.734Z,100239.84
2023-01-13T23:24:37.589Z,100244.75
2023-01-13T23:27:04.519Z,100240.00
2023-01-13T23:29:31.775Z,100238.47
2023-01-13T23:31:58.678Z,100229.03
2023-01-13T23:34:25.598Z,100232.44
2023-01-13T23:36:52.631Z,100239.25
2023-01-13T23:39:19.606Z,100237.28
2023-01-13T23:41:46.458Z,100237.38
2023-01-13T23:44:13.316Z,100236.38
2023-01-13T23:46:40.227Z,100247.88
2023-01-13T23:49:07.240Z,100236.06
2023-01-13T23:51:34.262Z,100238.06
2023-01-13T23:54:01.416Z,100237.06
2023-01-13T23:56:30.796Z,100247.50
2023-01-13T23:58:58.186Z,100238.69
